»·PEaware :: N799DS KSBA-KVNY

N799DS :: KSBA-KVNY

FLIGHT INFORMATION

Flight Status: Arrived
Operator: Privately registered:
United States
More flights under this callsign
Pilot: Wolfgang B. (15069)
Aircraft: CESSNA 172 SKYHAWK
(C172)
More flights by this aircraft type
Origin: KSBA Santa Barbara Mun
United States
Destination: KVNY Van Nuys
United States
More flights between these airports :: More routes between these airports
Route: KWANG CMA CMA072 GINNA
File this flight plan on PilotEdge
Remarks:
Altitude:
(Current/Filed)
5,000ft
Speed:
(Current/Filed)
120kts
Departed: 06-Apr-20 01:43 PM
Arrived: 06-Apr-20 02:32 PM
Distance/Time
Traveled:
68nm/0:49
Distance/Time
To Go:
Arrived

Flight Plot

Page will automatically refresh every two minutes.


Map Options




Map Legend


Flown Route
Filed Route
Departure Airport
Arrival Airport
Navaid (VOR, NDB)
Fix

Horizontal Profiles

Position Reports

Time Latitude Longitude Heading Altitude Ground
Speed
06-Apr-20 13:05 34.432569 -119.835085 71 14ft 0kts
06-Apr-20 13:06 34.432569 -119.835085 71 14ft 0kts
06-Apr-20 13:07 34.432569 -119.835085 71 14ft 0kts
06-Apr-20 13:08 34.432569 -119.835085 71 14ft 0kts
06-Apr-20 13:09 34.432569 -119.835085 71 14ft 0kts
06-Apr-20 13:10 34.432569 -119.835085 71 14ft 0kts
06-Apr-20 13:11 34.432569 -119.835085 71 14ft 0kts
06-Apr-20 13:12 34.432569 -119.835085 71 14ft 0kts
06-Apr-20 13:13 34.432569 -119.835085 71 14ft 0kts
06-Apr-20 13:14 34.432569 -119.835085 71 14ft 0kts
06-Apr-20 13:15 34.432572 -119.835075 72 14ft 0kts
06-Apr-20 13:16 34.432572 -119.835075 72 14ft 0kts
06-Apr-20 13:17 34.432572 -119.835075 72 14ft 0kts
06-Apr-20 13:18 34.432572 -119.835075 72 14ft 0kts
06-Apr-20 13:19 34.432572 -119.835075 72 14ft 0kts
06-Apr-20 13:20 34.432572 -119.835075 72 14ft 0kts
06-Apr-20 13:21 34.432572 -119.835075 72 14ft 0kts
06-Apr-20 13:22 34.432572 -119.835075 72 14ft 0kts
06-Apr-20 13:23 34.432572 -119.835075 72 14ft 0kts
06-Apr-20 13:24 34.432572 -119.835075 72 14ft 0kts
06-Apr-20 13:25 34.432572 -119.835075 72 14ft 0kts
06-Apr-20 13:26 34.432572 -119.835075 72 14ft 0kts
06-Apr-20 13:27 34.432572 -119.835075 72 14ft 0kts
06-Apr-20 13:28 34.432572 -119.835075 72 14ft 0kts
06-Apr-20 13:29 34.432572 -119.835075 72 14ft 0kts
06-Apr-20 13:30 34.432572 -119.835075 72 14ft 0kts
06-Apr-20 13:31 34.432572 -119.835075 72 14ft 0kts
06-Apr-20 13:32 34.432572 -119.835075 72 14ft 0kts
06-Apr-20 13:33 34.432572 -119.835075 72 14ft 0kts
06-Apr-20 13:34 34.432529 -119.834679 149 14ft 9kts
06-Apr-20 13:35 34.431082 -119.838562 249 14ft 15kts
06-Apr-20 13:36 34.430738 -119.839627 238 14ft 0kts
06-Apr-20 13:37 34.430738 -119.839626 239 14ft 0kts
06-Apr-20 13:38 34.430738 -119.839626 239 14ft 0kts
06-Apr-20 13:39 34.430738 -119.839626 239 14ft 0kts
06-Apr-20 13:40 34.430738 -119.839626 239 14ft 0kts
06-Apr-20 13:41 34.430736 -119.839630 238 14ft 0kts
06-Apr-20 13:42 34.426540 -119.839059 167 28ft 68kts
06-Apr-20 13:43 34.409021 -119.830570 163 961ft 69kts
06-Apr-20 13:44 34.391310 -119.821526 165 1839ft 69kts
06-Apr-20 13:45 34.373512 -119.812324 164 2663ft 70kts
06-Apr-20 13:46 34.358576 -119.797964 110 3436ft 81kts
06-Apr-20 13:47 34.353696 -119.770918 111 4170ft 82kts
06-Apr-20 13:48 34.348077 -119.743918 113 4857ft 83kts
06-Apr-20 13:49 34.341222 -119.709527 108 5003ft 125kts
06-Apr-20 13:50 34.332550 -119.666544 108 4999ft 131kts
06-Apr-20 13:51 34.323736 -119.623822 108 5000ft 130kts
06-Apr-20 13:52 34.314757 -119.580564 108 5000ft 133kts
06-Apr-20 13:53 34.305645 -119.536783 107 5000ft 134kts
06-Apr-20 13:54 34.296476 -119.492830 107 5001ft 135kts
06-Apr-20 13:55 34.287183 -119.448358 106 5001ft 136kts
06-Apr-20 13:56 34.277883 -119.403939 106 5001ft 136kts
06-Apr-20 13:57 34.268540 -119.359402 106 5001ft 136kts
06-Apr-20 13:58 34.259128 -119.314631 106 4998ft 136kts
06-Apr-20 13:59 34.249788 -119.270278 106 4999ft 136kts
06-Apr-20 14:00 34.240423 -119.225874 107 4999ft 135kts
06-Apr-20 14:01 34.231120 -119.181871 107 4999ft 134kts
06-Apr-20 14:02 34.221927 -119.138206 107 5000ft 133kts
06-Apr-20 14:03 34.213679 -119.094500 95 5001ft 133kts
06-Apr-20 14:04 34.214429 -119.049931 91 5001ft 131kts
06-Apr-20 14:05 34.216127 -119.005870 90 5002ft 131kts
06-Apr-20 14:06 34.217889 -118.961788 91 5001ft 131kts
06-Apr-20 14:07 34.219639 -118.917694 91 5009ft 131kts
06-Apr-20 14:08 34.221388 -118.873164 92 5010ft 134kts
06-Apr-20 14:10 34.222723 -118.828020 98 5010ft 134kts
06-Apr-20 14:11 34.221143 -118.782440 100 5010ft 135kts
06-Apr-20 14:12 34.222258 -118.737906 59 5006ft 141kts
06-Apr-20 14:13 34.255249 -118.710979 32 5006ft 143kts
06-Apr-20 14:14 34.289549 -118.686018 32 5009ft 143kts
06-Apr-20 14:15 34.323936 -118.661867 32 5013ft 142kts
06-Apr-20 14:16 34.358445 -118.638586 32 5019ft 141kts
06-Apr-20 14:17 34.393078 -118.616221 32 5027ft 142kts
06-Apr-20 14:18 34.428239 -118.594306 32 5031ft 140kts
06-Apr-20 14:19 34.462766 -118.573438 32 5033ft 137kts
06-Apr-20 14:20 34.485770 -118.546212 121 5030ft 107kts
06-Apr-20 14:21 34.465402 -118.521388 141 5033ft 104kts
06-Apr-20 14:22 34.438670 -118.511171 174 5033ft 106kts
06-Apr-20 14:23 34.409005 -118.509032 173 5034ft 107kts
06-Apr-20 14:24 34.383942 -118.506804 172 5033ft 84kts
06-Apr-20 14:25 34.359874 -118.504562 173 4508ft 88kts
06-Apr-20 14:26 34.334764 -118.502199 173 3892ft 91kts
06-Apr-20 14:27 34.309343 -118.499838 173 3248ft 92kts
06-Apr-20 14:27 34.288164 -118.497809 173 2707ft 91kts
06-Apr-20 14:29 34.258446 -118.494984 174 1955ft 92kts
06-Apr-20 14:30 34.234402 -118.492699 174 1351ft 71kts
06-Apr-20 14:30 34.220700 -118.491414 174 1015ft 56kts
06-Apr-20 14:31 34.208651 -118.490757 204 806ft 18kts
06-Apr-20 14:33 34.208051 -118.491153 228 806ft 0kts
06-Apr-20 14:33 34.208033 -118.491180 232 806ft 2kts
06-Apr-20 14:34 34.212637 -118.491793 352 806ft 19kts
06-Apr-20 14:35 34.216812 -118.492833 277 806ft 12kts
06-Apr-20 14:36 34.217735 -118.495476 345 806ft 0kts

Navigation Log

Ident Type
Flight plan parsing failed, navigation log unavailable